createdAt,value
2022-09-18T00:03:04.899Z,100.00
2022-09-18T00:06:13.131Z,100.00
2022-09-18T00:09:19.279Z,100.00
2022-09-18T00:12:25.806Z,100.00
2022-09-18T00:15:32.015Z,100.00
2022-09-18T00:18:39.788Z,100.00
2022-09-18T00:21:48.541Z,100.00
2022-09-18T00:24:54.893Z,100.00
2022-09-18T00:28:01.065Z,100.00
2022-09-18T00:31:08.492Z,100.00
2022-09-18T00:34:17.122Z,100.00
2022-09-18T00:37:23.399Z,100.00
2022-09-18T00:40:30.090Z,100.00
2022-09-18T00:43:38.487Z,100.00
2022-09-18T00:46:46.896Z,100.00
2022-09-18T00:50:00.784Z,100.00
2022-09-18T00:53:07.261Z,100.00
2022-09-18T00:56:16.944Z,100.00
2022-09-18T00:59:27.943Z,100.00
2022-09-18T01:02:34.529Z,100.00
2022-09-18T01:06:01.843Z,100.00
2022-09-18T01:09:25.313Z,100.00
2022-09-18T01:12:41.347Z,100.00
2022-09-18T01:15:53.394Z,100.00
2022-09-18T01:19:12.208Z,100.00
2022-09-18T01:22:33.212Z,100.00
2022-09-18T01:25:51.872Z,100.00
2022-09-18T01:29:06.558Z,100.00
2022-09-18T01:32:21.580Z,100.00
2022-09-18T01:35:41.605Z,100.00
2022-09-18T01:38:53.557Z,100.00
2022-09-18T01:42:00.821Z,100.00
2022-09-18T01:45:11.434Z,100.00
2022-09-18T01:48:26.015Z,100.00
2022-09-18T01:51:38.175Z,100.00
2022-09-18T01:54:49.655Z,100.00
2022-09-18T01:57:59.775Z,100.00
2022-09-18T02:01:13.427Z,100.00
2022-09-18T02:04:25.451Z,100.00
2022-09-18T02:07:37.123Z,100.00
2022-09-18T02:10:46.731Z,100.00
2022-09-18T02:13:59.873Z,100.00
2022-09-18T02:17:13.858Z,100.00
2022-09-18T02:20:24.193Z,100.00
2022-09-18T02:23:31.604Z,100.00
2022-09-18T02:26:39.818Z,100.00
2022-09-18T02:29:47.908Z,100.00
2022-09-18T02:32:57.224Z,100.00
2022-09-18T02:36:27.648Z,100.00
2022-09-18T02:39:47.780Z,100.00
2022-09-18T02:43:09.817Z,100.00
2022-09-18T02:46:25.086Z,100.00
2022-09-18T02:49:43.795Z,100.00
2022-09-18T02:52:56.536Z,100.00
2022-09-18T02:56:06.902Z,100.00
2022-09-18T02:59:19.249Z,100.00
2022-09-18T03:02:26.869Z,100.00
2022-09-18T03:05:34.446Z,100.00
2022-09-18T03:08:40.540Z,100.00
2022-09-18T03:11:46.883Z,100.00
2022-09-18T03:14:53.568Z,100.00
2022-09-18T03:17:59.862Z,100.00
2022-09-18T03:21:07.923Z,100.00
2022-09-18T03:24:14.321Z,100.00
2022-09-18T03:27:20.603Z,100.00
2022-09-18T03:30:26.857Z,100.00
2022-09-18T03:33:33.123Z,100.00
2022-09-18T03:36:41.035Z,100.00
2022-09-18T03:39:48.360Z,100.00
2022-09-18T03:42:54.526Z,100.00
2022-09-18T03:46:00.947Z,100.00
2022-09-18T03:49:06.947Z,100.00
2022-09-18T03:52:14.319Z,100.00
2022-09-18T03:55:20.331Z,100.00
2022-09-18T03:58:26.444Z,100.00
2022-09-18T04:01:32.798Z,100.00
2022-09-18T04:04:38.695Z,100.00
2022-09-18T04:07:46.467Z,100.00
2022-09-18T04:10:52.520Z,100.00
2022-09-18T04:13:59.141Z,100.00
2022-09-18T04:17:05.966Z,100.00
2022-09-18T04:20:12.488Z,100.00
2022-09-18T04:23:20.708Z,100.00
2022-09-18T04:26:27.840Z,100.00
2022-09-18T04:29:34.063Z,100.00
2022-09-18T04:32:40.494Z,100.00
2022-09-18T04:35:46.721Z,100.00
2022-09-18T04:38:54.308Z,100.00
2022-09-18T04:42:00.789Z,100.00
2022-09-18T04:45:08.750Z,100.00
2022-09-18T04:48:14.540Z,100.00
2022-09-18T04:51:21.663Z,100.00
2022-09-18T04:54:29.025Z,100.00
2022-09-18T04:57:34.995Z,100.00
2022-09-18T05:00:41.635Z,100.00
2022-09-18T05:03:48.110Z,100.00
2022-09-18T05:06:54.495Z,100.00
2022-09-18T05:10:02.496Z,100.00
2022-09-18T05:13:09.035Z,100.00
2022-09-18T05:16:15.525Z,100.00
2022-09-18T05:19:21.772Z,100.00
2022-09-18T05:22:28.412Z,100.00
2022-09-18T05:25:36.148Z,100.00
2022-09-18T05:28:42.457Z,100.00
2022-09-18T05:31:48.934Z,100.00
2022-09-18T05:34:55.189Z,100.00
2022-09-18T05:38:01.929Z,100.00
2022-09-18T05:41:10.489Z,100.00
2022-09-18T05:44:16.868Z,100.00
2022-09-18T05:47:23.104Z,100.00
2022-09-18T05:50:31.172Z,100.00
2022-09-18T05:53:37.143Z,100.00
2022-09-18T05:56:44.587Z,100.00
2022-09-18T05:59:50.545Z,100.00
2022-09-18T06:02:57.696Z,100.00
2022-09-18T06:06:03.763Z,100.00
2022-09-18T06:09:09.913Z,100.00
2022-09-18T06:12:17.790Z,100.00
2022-09-18T06:15:23.988Z,100.00
2022-09-18T06:18:30.383Z,100.00
2022-09-18T06:21:36.715Z,97.18
2022-09-18T06:24:42.858Z,100.00
2022-09-18T06:27:54.695Z,97.55
2022-09-18T06:31:01.905Z,97.85
2022-09-18T06:34:08.153Z,94.27
2022-09-18T06:37:15.814Z,94.71
2022-09-18T06:40:22.071Z,92.07
2022-09-18T06:43:29.933Z,91.58
2022-09-18T06:46:36.217Z,90.93
2022-09-18T06:49:47.129Z,87.80
2022-09-18T06:52:53.562Z,86.55
2022-09-18T06:56:02.539Z,86.76
2022-09-18T06:59:10.206Z,85.91
2022-09-18T07:02:19.562Z,84.50
2022-09-18T07:05:27.551Z,82.98
2022-09-18T07:08:33.694Z,84.30
2022-09-18T07:11:40.357Z,83.72
2022-09-18T07:14:48.314Z,81.32
2022-09-18T07:17:57.324Z,79.64
2022-09-18T07:21:03.299Z,77.56
2022-09-18T07:24:09.910Z,75.04
2022-09-18T07:27:16.322Z,72.25
2022-09-18T07:30:24.132Z,71.68
2022-09-18T07:33:30.939Z,72.64
2022-09-18T07:36:37.005Z,71.08
2022-09-18T07:39:44.332Z,70.74
2022-09-18T07:42:50.624Z,72.63
2022-09-18T07:45:58.559Z,70.45
2022-09-18T07:49:04.969Z,69.11
2022-09-18T07:52:11.479Z,66.01
2022-09-18T07:55:19.692Z,65.88
2022-09-18T07:58:25.755Z,66.27
2022-09-18T08:01:34.780Z,66.78
2022-09-18T08:04:43.977Z,65.99
2022-09-18T08:07:50.075Z,66.08
2022-09-18T08:10:57.586Z,63.83
2022-09-18T08:14:03.738Z,62.13
2022-09-18T08:17:11.875Z,60.43
2022-09-18T08:20:18.711Z,59.92
2022-09-18T08:23:25.325Z,60.51
2022-09-18T08:26:31.392Z,60.24
2022-09-18T08:29:37.641Z,59.24
2022-09-18T08:32:45.276Z,57.71
2022-09-18T08:35:51.832Z,57.12
2022-09-18T08:38:57.795Z,57.29
2022-09-18T08:42:25.230Z,56.87
2022-09-18T08:45:43.654Z,57.70
2022-09-18T08:48:59.592Z,58.05
2022-09-18T08:52:11.821Z,56.29
2022-09-18T08:55:24.865Z,55.37
2022-09-18T08:58:34.534Z,56.15
2022-09-18T09:01:51.090Z,56.09
2022-09-18T09:05:02.821Z,55.26
2022-09-18T09:08:29.490Z,57.03
2022-09-18T09:11:43.784Z,57.64
2022-09-18T09:15:12.309Z,57.05
2022-09-18T09:18:22.738Z,56.27
2022-09-18T09:21:52.320Z,57.24
2022-09-18T09:25:08.271Z,56.51
2022-09-18T09:28:20.652Z,56.92
2022-09-18T09:31:34.133Z,57.99
2022-09-18T09:34:45.758Z,55.79
2022-09-18T09:37:54.323Z,56.96
2022-09-18T09:41:07.702Z,56.38
2022-09-18T09:44:26.439Z,57.41
2022-09-18T09:47:41.626Z,55.69
2022-09-18T09:50:54.744Z,56.14
2022-09-18T09:54:03.740Z,55.80
2022-09-18T09:57:21.871Z,55.33
2022-09-18T10:00:36.856Z,54.42
2022-09-18T10:03:57.462Z,55.42
2022-09-18T10:07:12.419Z,53.87
2022-09-18T10:10:29.224Z,53.81
2022-09-18T10:13:40.250Z,54.02
2022-09-18T10:16:50.226Z,54.00
2022-09-18T10:19:56.603Z,54.90
2022-09-18T10:23:12.221Z,54.00
2022-09-18T10:26:27.070Z,53.80
2022-09-18T10:29:35.909Z,53.20
2022-09-18T10:32:43.234Z,54.51
2022-09-18T10:35:52.767Z,54.06
2022-09-18T10:39:00.976Z,53.81
2022-09-18T10:42:16.705Z,54.13
2022-09-18T10:45:25.275Z,54.96
2022-09-18T10:48:31.623Z,55.26
2022-09-18T10:51:38.059Z,54.24
2022-09-18T10:55:13.811Z,54.29
2022-09-18T10:58:33.342Z,54.57
2022-09-18T11:01:42.685Z,54.19
2022-09-18T11:04:51.623Z,53.62
2022-09-18T11:08:00.740Z,54.92
2022-09-18T11:11:09.916Z,54.07
2022-09-18T11:14:23.383Z,54.53
2022-09-18T11:17:32.311Z,54.19
2022-09-18T11:20:42.615Z,54.05
2022-09-18T11:23:48.836Z,53.91
2022-09-18T11:26:57.218Z,53.55
2022-09-18T11:30:16.624Z,51.93
2022-09-18T11:33:27.513Z,53.28
2022-09-18T11:36:34.791Z,50.92
2022-09-18T11:39:45.236Z,51.25
2022-09-18T11:42:54.251Z,50.82
2022-09-18T11:46:11.560Z,51.14
2022-09-18T11:49:23.407Z,50.47
2022-09-18T11:52:32.652Z,49.72
2022-09-18T11:55:44.499Z,50.03
2022-09-18T11:58:55.063Z,50.00
2022-09-18T12:02:14.910Z,50.26
2022-09-18T12:05:25.458Z,48.91
2022-09-18T12:08:41.575Z,48.06
2022-09-18T12:11:56.409Z,48.50
2022-09-18T12:15:09.658Z,49.13
2022-09-18T12:18:24.846Z,48.58
2022-09-18T12:21:41.149Z,49.62
2022-09-18T12:24:47.786Z,48.80
2022-09-18T12:27:59.969Z,46.75
2022-09-18T12:31:12.180Z,48.00
2022-09-18T12:34:27.622Z,47.17
2022-09-18T12:37:48.366Z,47.22
2022-09-18T12:41:20.543Z,47.45
2022-09-18T12:44:43.566Z,47.20
2022-09-18T12:48:12.569Z,46.19
2022-09-18T12:51:33.009Z,46.96
2022-09-18T12:55:01.322Z,46.71
2022-09-18T12:58:21.452Z,48.48
2022-09-18T13:01:32.952Z,49.05
2022-09-18T13:04:44.771Z,48.18
2022-09-18T13:07:56.617Z,48.69
2022-09-18T13:11:10.523Z,49.26
2022-09-18T13:14:21.983Z,47.80
2022-09-18T13:17:35.291Z,49.07
2022-09-18T13:20:44.522Z,47.72
2022-09-18T13:23:54.065Z,48.56
2022-09-18T13:27:01.988Z,46.81
2022-09-18T13:30:25.717Z,47.36
2022-09-18T13:33:31.898Z,46.82
2022-09-18T13:36:41.852Z,46.50
2022-09-18T13:40:09.248Z,47.08
2022-09-18T13:43:38.816Z,47.03
2022-09-18T13:46:45.133Z,47.65
2022-09-18T13:49:53.877Z,46.93
2022-09-18T13:53:01.277Z,48.21
2022-09-18T13:56:10.028Z,48.67
2022-09-18T13:59:23.798Z,47.49
2022-09-18T14:02:35.713Z,47.95
2022-09-18T14:05:42.901Z,47.50
2022-09-18T14:08:49.194Z,48.12
2022-09-18T14:12:11.531Z,47.80
2022-09-18T14:15:25.844Z,47.61
2022-09-18T14:18:41.386Z,48.40
2022-09-18T14:21:47.939Z,48.43
2022-09-18T14:25:01.941Z,46.34
2022-09-18T14:28:09.685Z,46.72
2022-09-18T14:31:27.342Z,41.87
2022-09-18T14:34:40.673Z,42.38
2022-09-18T14:37:47.290Z,42.08
2022-09-18T14:40:57.514Z,41.24
2022-09-18T14:44:07.008Z,42.79
2022-09-18T14:47:21.905Z,47.81
2022-09-18T14:50:36.828Z,48.08
2022-09-18T14:53:44.971Z,48.67
2022-09-18T14:56:53.726Z,48.32
2022-09-18T15:00:03.435Z,47.86
2022-09-18T15:03:19.300Z,47.55
2022-09-18T15:06:29.859Z,48.25
2022-09-18T15:09:36.460Z,48.38
2022-09-18T15:12:44.627Z,48.50
2022-09-18T15:15:59.433Z,48.10
2022-09-18T15:19:17.813Z,49.34
2022-09-18T15:22:24.531Z,49.14
2022-09-18T15:25:34.661Z,49.63
2022-09-18T15:28:46.014Z,50.29
2022-09-18T15:31:54.997Z,51.69
2022-09-18T15:35:01.993Z,51.58
2022-09-18T15:38:16.453Z,51.61
2022-09-18T15:41:30.570Z,51.58
2022-09-18T15:45:18.312Z,51.97
2022-09-18T15:48:37.226Z,52.21
2022-09-18T15:51:43.209Z,52.65
2022-09-18T15:55:04.760Z,53.29
2022-09-18T15:58:35.631Z,54.24
2022-09-18T16:01:48.217Z,54.58
2022-09-18T16:04:56.606Z,54.63
2022-09-18T16:08:05.495Z,55.35
2022-09-18T16:11:37.539Z,56.12
2022-09-18T16:14:46.837Z,55.65
2022-09-18T16:17:55.780Z,55.03
2022-09-18T16:21:05.617Z,55.74
2022-09-18T16:24:28.576Z,56.22
2022-09-18T16:27:35.573Z,56.28
2022-09-18T16:30:42.642Z,56.95
2022-09-18T16:33:55.468Z,56.71
2022-09-18T16:37:06.137Z,56.65
2022-09-18T16:40:18.697Z,56.61
2022-09-18T16:43:25.167Z,57.03
2022-09-18T16:46:35.851Z,56.87
2022-09-18T16:49:45.647Z,55.90
2022-09-18T16:52:55.888Z,54.60
2022-09-18T16:56:08.260Z,54.74
2022-09-18T16:59:14.433Z,53.92
2022-09-18T17:02:25.465Z,53.66
2022-09-18T17:05:32.583Z,53.51
2022-09-18T17:08:43.021Z,53.65
2022-09-18T17:11:53.135Z,53.55
2022-09-18T17:14:59.362Z,51.70
2022-09-18T17:18:05.831Z,51.97
2022-09-18T17:21:12.982Z,52.79
2022-09-18T17:24:25.604Z,53.47
2022-09-18T17:27:31.942Z,53.84
2022-09-18T17:30:42.451Z,54.28
2022-09-18T17:33:49.022Z,52.75
2022-09-18T17:36:55.369Z,52.84
2022-09-18T17:40:03.393Z,52.14
2022-09-18T17:43:10.306Z,52.22
2022-09-18T17:46:16.430Z,51.69
2022-09-18T17:49:22.840Z,51.26
2022-09-18T17:52:29.203Z,51.47
2022-09-18T17:55:37.887Z,51.85
2022-09-18T17:58:44.737Z,52.26
2022-09-18T18:01:51.406Z,53.02
2022-09-18T18:04:58.002Z,54.38
2022-09-18T18:08:04.366Z,54.39
2022-09-18T18:11:14.706Z,54.66
2022-09-18T18:14:21.096Z,54.54
2022-09-18T18:17:27.147Z,54.42
2022-09-18T18:20:33.661Z,54.46
2022-09-18T18:23:40.198Z,54.60
2022-09-18T18:26:48.538Z,55.36
2022-09-18T18:29:55.786Z,56.96
2022-09-18T18:33:03.412Z,57.48
2022-09-18T18:36:12.001Z,57.73
2022-09-18T18:39:20.100Z,58.92
2022-09-18T18:42:28.383Z,57.61
2022-09-18T18:45:35.928Z,56.90
2022-09-18T18:48:43.334Z,54.29
2022-09-18T18:51:51.906Z,53.60
2022-09-18T18:54:59.654Z,54.26
2022-09-18T18:58:07.610Z,54.09
2022-09-18T19:01:16.217Z,54.73
2022-09-18T19:04:22.819Z,53.98
2022-09-18T19:07:29.398Z,54.68
2022-09-18T19:10:36.375Z,53.28
2022-09-18T19:13:45.014Z,58.31
2022-09-18T19:16:51.724Z,54.83
2022-09-18T19:19:58.749Z,54.94
2022-09-18T19:23:06.948Z,55.45
2022-09-18T19:26:14.954Z,59.48
2022-09-18T19:29:23.228Z,56.13
2022-09-18T19:32:29.534Z,56.64
2022-09-18T19:35:36.911Z,58.74
2022-09-18T19:38:43.290Z,57.89
2022-09-18T19:41:55.377Z,55.82
2022-09-18T19:45:05.861Z,56.68
2022-09-18T19:48:21.500Z,58.99
2022-09-18T19:51:29.651Z,60.88
2022-09-18T19:54:36.246Z,66.15
2022-09-18T19:57:42.802Z,69.24
2022-09-18T20:00:51.177Z,70.79
2022-09-18T20:03:58.898Z,73.16
2022-09-18T20:07:05.459Z,75.21
2022-09-18T20:10:14.477Z,73.45
2022-09-18T20:13:20.798Z,65.16
2022-09-18T20:16:28.780Z,64.59
2022-09-18T20:19:34.920Z,65.60
2022-09-18T20:22:41.378Z,67.39
2022-09-18T20:25:49.694Z,68.42
2022-09-18T20:28:56.316Z,69.67
2022-09-18T20:32:04.506Z,76.95
2022-09-18T20:35:11.229Z,79.22
2022-09-18T20:38:17.606Z,80.31
2022-09-18T20:41:24.414Z,80.41
2022-09-18T20:44:35.120Z,81.98
2022-09-18T20:47:42.487Z,81.50
2022-09-18T20:50:49.311Z,84.33
2022-09-18T20:53:57.507Z,88.70
2022-09-18T20:57:04.354Z,86.74
2022-09-18T21:00:12.783Z,87.08
2022-09-18T21:03:21.230Z,86.91
2022-09-18T21:06:31.794Z,84.62
2022-09-18T21:09:38.002Z,88.05
2022-09-18T21:12:44.399Z,81.20
2022-09-18T21:15:50.707Z,77.82
2022-09-18T21:19:00.470Z,79.01
2022-09-18T21:22:07.115Z,79.56
2022-09-18T21:25:13.306Z,80.59
2022-09-18T21:28:19.741Z,84.29
2022-09-18T21:31:27.159Z,87.73
2022-09-18T21:34:35.359Z,90.20
2022-09-18T21:37:43.318Z,93.38
2022-09-18T21:40:49.548Z,96.74
2022-09-18T21:43:57.561Z,96.09
2022-09-18T21:47:05.641Z,93.19
2022-09-18T21:50:13.257Z,92.37
2022-09-18T21:53:19.607Z,93.55
2022-09-18T21:56:26.814Z,92.72
2022-09-18T21:59:36.207Z,94.61
2022-09-18T22:02:43.428Z,94.57
2022-09-18T22:05:52.576Z,95.21
2022-09-18T22:09:00.606Z,94.98
2022-09-18T22:12:07.629Z,95.10
2022-09-18T22:15:13.999Z,97.12
2022-09-18T22:18:20.349Z,100.00
2022-09-18T22:21:29.822Z,100.00
2022-09-18T22:24:36.084Z,100.00
2022-09-18T22:27:43.898Z,100.00
2022-09-18T22:30:50.163Z,100.00
2022-09-18T22:33:58.106Z,100.00
2022-09-18T22:37:05.939Z,100.00
2022-09-18T22:40:12.583Z,100.00
2022-09-18T22:43:19.672Z,100.00
2022-09-18T22:46:27.767Z,100.00
2022-09-18T22:49:34.001Z,100.00
2022-09-18T22:52:42.259Z,99.60
2022-09-18T22:55:48.694Z,99.60
2022-09-18T22:58:56.880Z,97.58
2022-09-18T23:02:05.989Z,98.39
2022-09-18T23:05:12.396Z,98.54
2022-09-18T23:08:20.368Z,100.00
2022-09-18T23:11:28.255Z,100.00
2022-09-18T23:14:34.475Z,100.00
2022-09-18T23:17:42.244Z,100.00
2022-09-18T23:20:48.590Z,100.00
2022-09-18T23:23:57.695Z,100.00
2022-09-18T23:27:04.076Z,100.00
2022-09-18T23:30:11.402Z,100.00
2022-09-18T23:33:19.274Z,100.00
2022-09-18T23:36:29.199Z,100.00
2022-09-18T23:39:37.054Z,100.00
2022-09-18T23:42:43.033Z,100.00
2022-09-18T23:45:49.494Z,100.00
2022-09-18T23:48:56.122Z,100.00
2022-09-18T23:52:02.705Z,100.00
2022-09-18T23:55:10.883Z,100.00
2022-09-18T23:58:18.427Z,100.00
